sensor_id;sensor_type;location;lat;lon;timestamp;pressure;altitude;pressure_sealevel;temperature;humidity
26443;BME280;5563;52.296;6.806;2023-04-19T00:01:00;102755.53;;;8.74;75.82
26443;BME280;5563;52.296;6.806;2023-04-19T00:03:34;102750.94;;;8.78;75.69
26443;BME280;5563;52.296;6.806;2023-04-19T00:06:01;102750.81;;;8.81;75.47
26443;BME280;5563;52.296;6.806;2023-04-19T00:08:35;102739.22;;;8.82;75.35
26443;BME280;5563;52.296;6.806;2023-04-19T00:11:01;102744.50;;;8.83;75.48
26443;BME280;5563;52.296;6.806;2023-04-19T00:13:41;102744.53;;;8.82;75.17
26443;BME280;5563;52.296;6.806;2023-04-19T00:16:15;102733.72;;;8.86;75.15
26443;BME280;5563;52.296;6.806;2023-04-19T00:18:42;102731.97;;;8.85;75.10
26443;BME280;5563;52.296;6.806;2023-04-19T00:21:16;102730.13;;;8.87;74.65
26443;BME280;5563;52.296;6.806;2023-04-19T00:23:49;102735.59;;;8.84;74.61
26443;BME280;5563;52.296;6.806;2023-04-19T00:26:15;102733.13;;;8.80;74.76
26443;BME280;5563;52.296;6.806;2023-04-19T00:28:49;102735.06;;;8.76;75.18
26443;BME280;5563;52.296;6.806;2023-04-19T00:31:22;102728.06;;;8.73;74.68
26443;BME280;5563;52.296;6.806;2023-04-19T00:33:55;102727.34;;;8.70;75.40
26443;BME280;5563;52.296;6.806;2023-04-19T00:36:29;102726.38;;;8.71;75.11
26443;BME280;5563;52.296;6.806;2023-04-19T00:39:03;102730.97;;;8.67;74.58
26443;BME280;5563;52.296;6.806;2023-04-19T00:41:37;102728.53;;;8.63;74.90
26443;BME280;5563;52.296;6.806;2023-04-19T00:44:04;102719.03;;;8.57;74.99
26443;BME280;5563;52.296;6.806;2023-04-19T00:46:37;102727.88;;;8.58;75.30
26443;BME280;5563;52.296;6.806;2023-04-19T00:49:11;102721.94;;;8.51;75.71
26443;BME280;5563;52.296;6.806;2023-04-19T00:51:38;102719.22;;;8.53;75.19
26443;BME280;5563;52.296;6.806;2023-04-19T00:54:12;102724.59;;;8.51;75.28
26443;BME280;5563;52.296;6.806;2023-04-19T00:56:51;102708.97;;;8.44;75.31
26443;BME280;5563;52.296;6.806;2023-04-19T00:59:25;102721.41;;;8.43;75.24
26443;BME280;5563;52.296;6.806;2023-04-19T01:01:52;102727.53;;;8.45;75.50
26443;BME280;5563;52.296;6.806;2023-04-19T01:04:25;102723.25;;;8.41;75.39
26443;BME280;5563;52.296;6.806;2023-04-19T01:06:52;102710.34;;;8.32;75.47
26443;BME280;5563;52.296;6.806;2023-04-19T01:09:26;102715.81;;;8.29;75.58
26443;BME280;5563;52.296;6.806;2023-04-19T01:11:52;102729.81;;;8.33;75.58
26443;BME280;5563;52.296;6.806;2023-04-19T01:14:26;102722.03;;;8.28;75.72
26443;BME280;5563;52.296;6.806;2023-04-19T01:16:53;102728.28;;;8.27;75.98
26443;BME280;5563;52.296;6.806;2023-04-19T01:19:26;102718.59;;;8.26;76.23
26443;BME280;5563;52.296;6.806;2023-04-19T01:21:52;102725.78;;;8.23;75.93
26443;BME280;5563;52.296;6.806;2023-04-19T01:24:28;102722.34;;;8.21;75.70
26443;BME280;5563;52.296;6.806;2023-04-19T01:26:55;102725.09;;;8.18;75.96
26443;BME280;5563;52.296;6.806;2023-04-19T01:29:29;102725.16;;;8.16;75.81
26443;BME280;5563;52.296;6.806;2023-04-19T01:32:02;102724.34;;;8.14;76.10
26443;BME280;5563;52.296;6.806;2023-04-19T01:34:28;102726.22;;;8.12;76.08
26443;BME280;5563;52.296;6.806;2023-04-19T01:37:02;102731.66;;;8.09;76.27
26443;BME280;5563;52.296;6.806;2023-04-19T01:39:29;102730.91;;;8.06;76.20
26443;BME280;5563;52.296;6.806;2023-04-19T01:42:02;102737.03;;;8.08;76.31
26443;BME280;5563;52.296;6.806;2023-04-19T01:44:29;102727.28;;;8.08;76.18
26443;BME280;5563;52.296;6.806;2023-04-19T01:47:03;102726.41;;;8.08;76.10
26443;BME280;5563;52.296;6.806;2023-04-19T01:49:37;102725.50;;;8.09;76.05
26443;BME280;5563;52.296;6.806;2023-04-19T01:52:11;102723.75;;;8.08;76.23
26443;BME280;5563;52.296;6.806;2023-04-19T01:54:37;102717.75;;;8.03;75.79
26443;BME280;5563;52.296;6.806;2023-04-19T01:57:18;102726.47;;;8.06;76.02
26443;BME280;5563;52.296;6.806;2023-04-19T01:59:52;102731.78;;;8.06;75.95
26443;BME280;5563;52.296;6.806;2023-04-19T02:02:19;102723.94;;;8.03;76.04
26443;BME280;5563;52.296;6.806;2023-04-19T02:04:53;102726.59;;;8.03;75.92
26443;BME280;5563;52.296;6.806;2023-04-19T02:07:20;102726.69;;;8.02;75.64
26443;BME280;5563;52.296;6.806;2023-04-19T02:09:53;102713.63;;;7.96;75.87
26443;BME280;5563;52.296;6.806;2023-04-19T02:12:19;102725.88;;;8.00;75.55
26443;BME280;5563;52.296;6.806;2023-04-19T02:14:53;102721.59;;;7.96;75.61
26443;BME280;5563;52.296;6.806;2023-04-19T02:17:23;102718.13;;;7.94;75.49
26443;BME280;5563;52.296;6.806;2023-04-19T02:19:57;102713.84;;;7.90;75.48
26443;BME280;5563;52.296;6.806;2023-04-19T02:22:23;102722.63;;;7.92;75.57
26443;BME280;5563;52.296;6.806;2023-04-19T02:24:57;102715.66;;;7.89;75.21
26443;BME280;5563;52.296;6.806;2023-04-19T02:27:24;102725.50;;;7.87;75.39
26443;BME280;5563;52.296;6.806;2023-04-19T02:29:58;102716.78;;;7.84;75.11
26443;BME280;5563;52.296;6.806;2023-04-19T02:32:24;102722.19;;;7.81;75.45
26443;BME280;5563;52.296;6.806;2023-04-19T02:34:59;102724.16;;;7.76;75.12
26443;BME280;5563;52.296;6.806;2023-04-19T02:37:26;102723.25;;;7.77;75.49
26443;BME280;5563;52.296;6.806;2023-04-19T02:39:53;102720.75;;;7.72;75.22
26443;BME280;5563;52.296;6.806;2023-04-19T02:42:26;102729.59;;;7.73;75.30
26443;BME280;5563;52.296;6.806;2023-04-19T02:44:53;102728.84;;;7.69;74.94
26443;BME280;5563;52.296;6.806;2023-04-19T02:47:26;102733.41;;;7.65;75.09
26443;BME280;5563;52.296;6.806;2023-04-19T02:49:52;102732.75;;;7.60;75.17
26443;BME280;5563;52.296;6.806;2023-04-19T02:52:26;102735.50;;;7.57;75.44
26443;BME280;5563;52.296;6.806;2023-04-19T02:55:00;102737.25;;;7.58;75.25
26443;BME280;5563;52.296;6.806;2023-04-19T02:57:39;102736.50;;;7.55;75.01
26443;BME280;5563;52.296;6.806;2023-04-19T03:00:13;102728.59;;;7.53;75.25
26443;BME280;5563;52.296;6.806;2023-04-19T03:02:41;102725.06;;;7.53;74.93
26443;BME280;5563;52.296;6.806;2023-04-19T03:05:15;102725.81;;;7.56;74.55
26443;BME280;5563;52.296;6.806;2023-04-19T03:07:49;102727.50;;;7.59;74.48
26443;BME280;5563;52.296;6.806;2023-04-19T03:10:22;102728.28;;;7.61;74.22
26443;BME280;5563;52.296;6.806;2023-04-19T03:12:49;102718.59;;;7.60;73.98
26443;BME280;5563;52.296;6.806;2023-04-19T03:15:22;102722.81;;;7.65;73.62
26443;BME280;5563;52.296;6.806;2023-04-19T03:17:49;102725.16;;;7.73;73.17
26443;BME280;5563;52.296;6.806;2023-04-19T03:20:23;102720.59;;;7.77;72.87
26443;BME280;5563;52.296;6.806;2023-04-19T03:22:50;102716.88;;;7.81;72.63
26443;BME280;5563;52.296;6.806;2023-04-19T03:25:23;102712.31;;;7.84;71.94
26443;BME280;5563;52.296;6.806;2023-04-19T03:27:50;102722.63;;;7.92;71.76
26443;BME280;5563;52.296;6.806;2023-04-19T03:30:24;102717.25;;;7.93;70.77
26443;BME280;5563;52.296;6.806;2023-04-19T03:32:50;102717.94;;;7.98;70.40
26443;BME280;5563;52.296;6.806;2023-04-19T03:35:25;102718.63;;;8.03;70.27
26443;BME280;5563;52.296;6.806;2023-04-19T03:37:52;102715.84;;;8.06;69.93
26443;BME280;5563;52.296;6.806;2023-04-19T03:40:25;102703.69;;;8.01;69.60
26443;BME280;5563;52.296;6.806;2023-04-19T03:42:58;102722.78;;;8.10;68.52
26443;BME280;5563;52.296;6.806;2023-04-19T03:45:31;102721.84;;;8.11;68.87
26443;BME280;5563;52.296;6.806;2023-04-19T03:48:04;102717.41;;;8.12;68.17
26443;BME280;5563;52.296;6.806;2023-04-19T03:50:31;102719.09;;;8.13;67.52
26443;BME280;5563;52.296;6.806;2023-04-19T03:53:04;102712.09;;;8.12;66.81
26443;BME280;5563;52.296;6.806;2023-04-19T03:55:31;102708.56;;;8.11;65.70
26443;BME280;5563;52.296;6.806;2023-04-19T03:58:11;102717.31;;;8.13;65.84
26443;BME280;5563;52.296;6.806;2023-04-19T04:00:38;102712.16;;;8.10;65.29
26443;BME280;5563;52.296;6.806;2023-04-19T04:03:11;102717.53;;;8.09;64.03
26443;BME280;5563;52.296;6.806;2023-04-19T04:05:38;102703.50;;;8.05;63.62
26443;BME280;5563;52.296;6.806;2023-04-19T04:08:12;102706.25;;;8.02;63.05
26443;BME280;5563;52.296;6.806;2023-04-19T04:10:39;102709.66;;;8.06;62.67
26443;BME280;5563;52.296;6.806;2023-04-19T04:13:13;102715.91;;;8.05;62.21
26443;BME280;5563;52.296;6.806;2023-04-19T04:15:46;102712.44;;;8.03;62.08
26443;BME280;5563;52.296;6.806;2023-04-19T04:18:13;102712.44;;;8.03;62.02
26443;BME280;5563;52.296;6.806;2023-04-19T04:20:47;102717.81;;;8.01;62.01
26443;BME280;5563;52.296;6.806;2023-04-19T04:23:13;102708.44;;;7.93;63.21
26443;BME280;5563;52.296;6.806;2023-04-19T04:25:55;102717.19;;;7.95;61.81
26443;BME280;5563;52.296;6.806;2023-04-19T04:28:22;102717.31;;;7.92;61.32
26443;BME280;5563;52.296;6.806;2023-04-19T04:30:56;102715.78;;;7.86;60.62
26443;BME280;5563;52.296;6.806;2023-04-19T04:33:24;102725.66;;;7.83;59.01
26443;BME280;5563;52.296;6.806;2023-04-19T04:35:58;102730.28;;;7.78;59.03
26443;BME280;5563;52.296;6.806;2023-04-19T04:38:25;102729.47;;;7.76;59.80
26443;BME280;5563;52.296;6.806;2023-04-19T04:40:52;102736.81;;;7.69;59.46
26443;BME280;5563;52.296;6.806;2023-04-19T04:43:26;102744.19;;;7.61;59.68
26443;BME280;5563;52.296;6.806;2023-04-19T04:46:16;102729.81;;;7.45;59.22
26443;BME280;5563;52.296;6.806;2023-04-19T04:48:51;102740.66;;;7.39;58.83
26443;BME280;5563;52.296;6.806;2023-04-19T04:51:25;102733.31;;;7.22;58.37
26443;BME280;5563;52.296;6.806;2023-04-19T04:53:59;102744.09;;;7.18;59.48
26443;BME280;5563;52.296;6.806;2023-04-19T04:56:32;102740.91;;;7.08;59.20
26443;BME280;5563;52.296;6.806;2023-04-19T04:59:06;102741.41;;;6.95;58.06
26443;BME280;5563;52.296;6.806;2023-04-19T05:01:33;102734.75;;;6.83;58.44
26443;BME280;5563;52.296;6.806;2023-04-19T05:04:07;102743.81;;;6.76;58.32
26443;BME280;5563;52.296;6.806;2023-04-19T05:06:34;102743.25;;;6.68;58.37
26443;BME280;5563;52.296;6.806;2023-04-19T05:09:08;102743.50;;;6.61;58.81
26443;BME280;5563;52.296;6.806;2023-04-19T05:11:41;102747.22;;;6.55;58.80
26443;BME280;5563;52.296;6.806;2023-04-19T05:14:14;102746.63;;;6.47;58.80
26443;BME280;5563;52.296;6.806;2023-04-19T05:16:41;102747.75;;;6.40;58.40
26443;BME280;5563;52.296;6.806;2023-04-19T05:19:14;102748.81;;;6.34;58.42
26443;BME280;5563;52.296;6.806;2023-04-19T05:21:41;102744.59;;;6.29;58.58
26443;BME280;5563;52.296;6.806;2023-04-19T05:24:08;102754.34;;;6.27;58.81
26443;BME280;5563;52.296;6.806;2023-04-19T05:26:43;102747.41;;;6.23;58.80
26443;BME280;5563;52.296;6.806;2023-04-19T05:29:09;102758.00;;;6.23;58.93
26443;BME280;5563;52.296;6.806;2023-04-19T05:31:43;102753.75;;;6.19;59.56
26443;BME280;5563;52.296;6.806;2023-04-19T05:34:10;102754.66;;;6.18;59.44
26443;BME280;5563;52.296;6.806;2023-04-19T05:36:48;102747.69;;;6.15;60.09
26443;BME280;5563;52.296;6.806;2023-04-19T05:39:15;102749.47;;;6.15;59.83
26443;BME280;5563;52.296;6.806;2023-04-19T05:41:49;102753.00;;;6.14;59.09
26443;BME280;5563;52.296;6.806;2023-04-19T05:44:23;102740.00;;;6.08;59.30
26443;BME280;5563;52.296;6.806;2023-04-19T05:46:56;102755.63;;;6.15;59.24
26443;BME280;5563;52.296;6.806;2023-04-19T05:49:29;102749.34;;;6.18;58.95
26443;BME280;5563;52.296;6.806;2023-04-19T05:52:02;102753.78;;;6.17;58.96
26443;BME280;5563;52.296;6.806;2023-04-19T05:54:35;102752.06;;;6.16;58.16
26443;BME280;5563;52.296;6.806;2023-04-19T05:57:15;102766.00;;;6.21;58.57
26443;BME280;5563;52.296;6.806;2023-04-19T05:59:49;102763.41;;;6.20;58.32
26443;BME280;5563;52.296;6.806;2023-04-19T06:02:16;102770.41;;;6.22;58.29
26443;BME280;5563;52.296;6.806;2023-04-19T06:04:49;102767.66;;;6.25;58.37
26443;BME280;5563;52.296;6.806;2023-04-19T06:07:17;102771.19;;;6.26;57.57
26443;BME280;5563;52.296;6.806;2023-04-19T06:09:59;102760.66;;;6.23;58.02
26443;BME280;5563;52.296;6.806;2023-04-19T06:12:32;102779.00;;;6.29;57.94
26443;BME280;5563;52.296;6.806;2023-04-19T06:15:05;102777.19;;;6.31;58.14
26443;BME280;5563;52.296;6.806;2023-04-19T06:17:32;102776.19;;;6.35;57.88
26443;BME280;5563;52.296;6.806;2023-04-19T06:20:06;102780.44;;;6.39;58.57
26443;BME280;5563;52.296;6.806;2023-04-19T06:22:34;102770.53;;;6.45;57.32
26443;BME280;5563;52.296;6.806;2023-04-19T06:25:07;102778.25;;;6.51;57.39
26443;BME280;5563;52.296;6.806;2023-04-19T06:27:41;102785.19;;;6.55;56.87
26443;BME280;5563;52.296;6.806;2023-04-19T06:30:14;102780.59;;;6.61;56.74
26443;BME280;5563;52.296;6.806;2023-04-19T06:32:43;102776.94;;;6.65;56.48
26443;BME280;5563;52.296;6.806;2023-04-19T06:35:16;102771.63;;;6.65;56.43
26443;BME280;5563;52.296;6.806;2023-04-19T06:37:50;102773.47;;;6.63;56.23
26443;BME280;5563;52.296;6.806;2023-04-19T06:40:17;102785.41;;;6.76;56.69
26443;BME280;5563;52.296;6.806;2023-04-19T06:42:52;102782.75;;;6.76;55.55
26443;BME280;5563;52.296;6.806;2023-04-19T06:45:18;102790.53;;;6.80;56.36
26443;BME280;5563;52.296;6.806;2023-04-19T06:47:52;102781.63;;;6.81;56.43
26443;BME280;5563;52.296;6.806;2023-04-19T06:50:25;102785.03;;;6.86;55.77
26443;BME280;5563;52.296;6.806;2023-04-19T06:52:59;102789.13;;;6.95;56.73
26443;BME280;5563;52.296;6.806;2023-04-19T06:55:38;102796.97;;;6.98;55.19
26443;BME280;5563;52.296;6.806;2023-04-19T06:58:05;102801.19;;;7.03;56.12
26443;BME280;5563;52.296;6.806;2023-04-19T07:00:42;102808.09;;;7.09;56.15
26443;BME280;5563;52.296;6.806;2023-04-19T07:03:16;102800.81;;;7.14;56.02
26443;BME280;5563;52.296;6.806;2023-04-19T07:05:50;102785.94;;;7.10;55.71
26443;BME280;5563;52.296;6.806;2023-04-19T07:08:23;102792.53;;;7.23;55.09
26443;BME280;5563;52.296;6.806;2023-04-19T07:11:15;102796.91;;;7.24;55.36
26443;BME280;5563;52.296;6.806;2023-04-19T07:13:48;102788.19;;;7.20;55.55
26443;BME280;5563;52.296;6.806;2023-04-19T07:16:22;102783.31;;;7.33;54.55
26443;BME280;5563;52.296;6.806;2023-04-19T07:18:49;102784.06;;;7.36;53.70
26443;BME280;5563;52.296;6.806;2023-04-19T07:21:23;102794.34;;;7.45;53.75
26443;BME280;5563;52.296;6.806;2023-04-19T07:23:52;102791.53;;;7.50;55.48
26443;BME280;5563;52.296;6.806;2023-04-19T07:26:26;102792.91;;;7.60;55.42
26443;BME280;5563;52.296;6.806;2023-04-19T07:28:53;102773.66;;;7.55;55.21
26443;BME280;5563;52.296;6.806;2023-04-19T07:31:26;102782.50;;;7.77;53.14
26443;BME280;5563;52.296;6.806;2023-04-19T07:33:54;102781.34;;;7.84;53.05
26443;BME280;5563;52.296;6.806;2023-04-19T07:36:27;102745.31;;;7.79;53.36
26443;BME280;5563;52.296;6.806;2023-04-19T07:38:54;102793.09;;;8.02;52.82
26443;BME280;5563;52.296;6.806;2023-04-19T07:41:27;102781.66;;;8.00;52.61
26443;BME280;5563;52.296;6.806;2023-04-19T07:44:01;102777.75;;;8.08;53.00
26443;BME280;5563;52.296;6.806;2023-04-19T07:46:35;102767.94;;;8.10;52.51
26443;BME280;5563;52.296;6.806;2023-04-19T07:49:09;102754.31;;;8.18;52.55
26443;BME280;5563;52.296;6.806;2023-04-19T07:51:43;102768.81;;;8.32;51.96
26443;BME280;5563;52.296;6.806;2023-04-19T07:54:13;102766.66;;;8.42;51.62
26443;BME280;5563;52.296;6.806;2023-04-19T07:56:48;102756.75;;;8.45;51.99
26443;BME280;5563;52.296;6.806;2023-04-19T07:59:23;102745.91;;;8.50;50.76
26443;BME280;5563;52.296;6.806;2023-04-19T08:01:56;102757.91;;;8.60;50.56
26443;BME280;5563;52.296;6.806;2023-04-19T08:04:23;102772.28;;;8.76;50.89
26443;BME280;5563;52.296;6.806;2023-04-19T08:06:57;102737.09;;;8.69;50.17
26443;BME280;5563;52.296;6.806;2023-04-19T08:09:32;102766.44;;;8.88;50.66
26443;BME280;5563;52.296;6.806;2023-04-19T08:11:59;102745.03;;;8.91;51.18
26443;BME280;5563;52.296;6.806;2023-04-19T08:14:33;102762.50;;;8.97;48.81
26443;BME280;5563;52.296;6.806;2023-04-19T08:17:17;102762.66;;;8.94;49.15
26443;BME280;5563;52.296;6.806;2023-04-19T08:20:02;102747.81;;;8.88;48.45
26443;BME280;5563;52.296;6.806;2023-04-19T08:22:33;102762.09;;;9.06;49.49
26443;BME280;5563;52.296;6.806;2023-04-19T08:25:07;102749.47;;;9.11;48.17
26443;BME280;5563;52.296;6.806;2023-04-19T08:27:34;102760.69;;;9.17;48.62
26443;BME280;5563;52.296;6.806;2023-04-19T08:30:08;102759.44;;;9.26;48.44
26443;BME280;5563;52.296;6.806;2023-04-19T08:32:36;102738.41;;;9.20;46.70
26443;BME280;5563;52.296;6.806;2023-04-19T08:35:04;102753.56;;;9.38;47.58
26443;BME280;5563;52.296;6.806;2023-04-19T08:37:38;102737.69;;;9.35;45.55
26443;BME280;5563;52.296;6.806;2023-04-19T08:40:12;102735.13;;;9.33;47.50
26443;BME280;5563;52.296;6.806;2023-04-19T08:42:42;102742.72;;;9.61;48.00
26443;BME280;5563;52.296;6.806;2023-04-19T08:45:18;102747.66;;;9.87;46.06
26443;BME280;5563;52.296;6.806;2023-04-19T08:47:58;102746.66;;;9.90;46.26
26443;BME280;5563;52.296;6.806;2023-04-19T08:50:28;102747.16;;;9.98;46.15
26443;BME280;5563;52.296;6.806;2023-04-19T08:53:21;102750.75;;;10.15;45.08
26443;BME280;5563;52.296;6.806;2023-04-19T08:55:51;102733.13;;;10.13;43.67
26443;BME280;5563;52.296;6.806;2023-04-19T08:58:46;102734.88;;;10.31;46.89
26443;BME280;5563;52.296;6.806;2023-04-19T09:01:16;102733.94;;;10.49;42.78
26443;BME280;5563;52.296;6.806;2023-04-19T09:04:04;102750.81;;;10.66;43.25
26443;BME280;5563;52.296;6.806;2023-04-19T09:06:52;102738.75;;;10.76;40.73
26443;BME280;5563;52.296;6.806;2023-04-19T09:09:28;102736.44;;;10.86;39.27
26443;BME280;5563;52.296;6.806;2023-04-19T09:11:58;102723.19;;;10.84;39.91
26443;BME280;5563;52.296;6.806;2023-04-19T09:14:31;102712.53;;;10.84;40.96
26443;BME280;5563;52.296;6.806;2023-04-19T09:17:18;102730.34;;;11.01;39.44
26443;BME280;5563;52.296;6.806;2023-04-19T09:19:51;102718.31;;;11.10;39.83
26443;BME280;5563;52.296;6.806;2023-04-19T09:22:18;102724.88;;;11.20;37.73
26443;BME280;5563;52.296;6.806;2023-04-19T09:24:51;102721.19;;;11.22;36.98
26443;BME280;5563;52.296;6.806;2023-04-19T09:27:38;102726.13;;;11.45;37.90
26443;BME280;5563;52.296;6.806;2023-04-19T09:30:11;102716.44;;;11.60;37.19
26443;BME280;5563;52.296;6.806;2023-04-19T09:32:55;102716.69;;;11.71;35.57
26443;BME280;5563;52.296;6.806;2023-04-19T09:35:47;102699.56;;;11.75;35.73
26443;BME280;5563;52.296;6.806;2023-04-19T09:38:15;102710.78;;;11.97;34.29
26443;BME280;5563;52.296;6.806;2023-04-19T09:40:49;102709.97;;;12.11;34.66
26443;BME280;5563;52.296;6.806;2023-04-19T09:43:22;102693.88;;;12.26;36.05
26443;BME280;5563;52.296;6.806;2023-04-19T09:46:00;102705.56;;;12.55;35.52
26443;BME280;5563;52.296;6.806;2023-04-19T09:48:27;102706.16;;;12.74;34.74
26443;BME280;5563;52.296;6.806;2023-04-19T09:50:59;102701.25;;;12.96;34.18
26443;BME280;5563;52.296;6.806;2023-04-19T09:53:39;102667.81;;;13.17;32.87
26443;BME280;5563;52.296;6.806;2023-04-19T09:56:12;102660.81;;;13.29;33.72
26443;BME280;5563;52.296;6.806;2023-04-19T09:58:46;102688.19;;;13.34;29.35
26443;BME280;5563;52.296;6.806;2023-04-19T10:01:22;102664.44;;;12.99;30.69
26443;BME280;5563;52.296;6.806;2023-04-19T10:03:57;102683.50;;;13.23;31.63
26443;BME280;5563;52.296;6.806;2023-04-19T10:06:45;102683.19;;;13.28;29.78
26443;BME280;5563;52.296;6.806;2023-04-19T10:09:48;102689.91;;;13.21;31.75
26443;BME280;5563;52.296;6.806;2023-04-19T10:12:23;102664.44;;;13.42;30.28
26443;BME280;5563;52.296;6.806;2023-04-19T10:15:19;102676.25;;;13.66;30.87
26443;BME280;5563;52.296;6.806;2023-04-19T10:17:47;102672.09;;;13.88;29.80
26443;BME280;5563;52.296;6.806;2023-04-19T10:20:31;102677.63;;;13.85;29.24
26443;BME280;5563;52.296;6.806;2023-04-19T10:23:06;102644.97;;;13.52;29.25
26443;BME280;5563;52.296;6.806;2023-04-19T10:25:45;102666.56;;;13.77;30.51
26443;BME280;5563;52.296;6.806;2023-04-19T10:28:14;102662.91;;;14.05;29.87
26443;BME280;5563;52.296;6.806;2023-04-19T10:30:58;102647.19;;;14.13;30.29
26443;BME280;5563;52.296;6.806;2023-04-19T10:33:35;102654.78;;;14.19;29.06
26443;BME280;5563;52.296;6.806;2023-04-19T10:36:02;102649.81;;;14.27;29.08
26443;BME280;5563;52.296;6.806;2023-04-19T10:38:50;102645.56;;;14.10;28.87
26443;BME280;5563;52.296;6.806;2023-04-19T10:41:56;102639.56;;;14.20;30.64
26443;BME280;5563;52.296;6.806;2023-04-19T10:44:24;102641.81;;;14.40;29.80
26443;BME280;5563;52.296;6.806;2023-04-19T10:46:58;102635.38;;;14.67;30.53
26443;BME280;5563;52.296;6.806;2023-04-19T10:49:27;102638.72;;;14.71;29.52
26443;BME280;5563;52.296;6.806;2023-04-19T10:52:25;102624.19;;;14.36;29.60
26443;BME280;5563;52.296;6.806;2023-04-19T10:54:56;102623.25;;;14.37;29.16
26443;BME280;5563;52.296;6.806;2023-04-19T10:58:04;102619.50;;;14.64;31.62
26443;BME280;5563;52.296;6.806;2023-04-19T11:00:37;102601.09;;;14.96;28.27
26443;BME280;5563;52.296;6.806;2023-04-19T11:06:17;102587.69;;;14.83;28.17
26443;BME280;5563;52.296;6.806;2023-04-19T11:08:59;102581.69;;;14.80;28.55
26443;BME280;5563;52.296;6.806;2023-04-19T11:11:31;102579.44;;;14.86;29.37
26443;BME280;5563;52.296;6.806;2023-04-19T11:14:06;102582.75;;;14.90;27.17
26443;BME280;5563;52.296;6.806;2023-04-19T11:16:34;102569.53;;;14.74;28.22
26443;BME280;5563;52.296;6.806;2023-04-19T11:19:15;102570.16;;;14.90;28.59
26443;BME280;5563;52.296;6.806;2023-04-19T11:21:47;102549.44;;;14.92;26.22
26443;BME280;5563;52.296;6.806;2023-04-19T11:24:20;102574.22;;;15.08;26.55
26443;BME280;5563;52.296;6.806;2023-04-19T11:26:47;102560.59;;;14.99;27.23
26443;BME280;5563;52.296;6.806;2023-04-19T11:29:21;102543.94;;;14.94;26.27
26443;BME280;5563;52.296;6.806;2023-04-19T11:31:48;102539.31;;;15.08;26.84
26443;BME280;5563;52.296;6.806;2023-04-19T11:34:22;102547.28;;;15.34;26.06
26443;BME280;5563;52.296;6.806;2023-04-19T11:36:52;102536.97;;;15.28;26.23
26443;BME280;5563;52.296;6.806;2023-04-19T11:39:25;102536.53;;;15.46;25.81
26443;BME280;5563;52.296;6.806;2023-04-19T11:41:52;102540.16;;;15.45;25.57
26443;BME280;5563;52.296;6.806;2023-04-19T11:44:26;102528.16;;;15.62;26.22
26443;BME280;5563;52.296;6.806;2023-04-19T11:46:59;102548.63;;;15.75;25.07
26443;BME280;5563;52.296;6.806;2023-04-19T11:49:33;102541.22;;;15.55;25.30
26443;BME280;5563;52.296;6.806;2023-04-19T11:52:04;102529.53;;;15.44;24.86
26443;BME280;5563;52.296;6.806;2023-04-19T11:54:38;102533.84;;;15.34;25.14
26443;BME280;5563;52.296;6.806;2023-04-19T11:57:12;102510.81;;;15.42;25.72
26443;BME280;5563;52.296;6.806;2023-04-19T12:00:01;102529.59;;;15.55;25.28
26443;BME280;5563;52.296;6.806;2023-04-19T12:02:39;102524.22;;;15.55;27.11
26443;BME280;5563;52.296;6.806;2023-04-19T12:05:14;102510.59;;;15.69;25.08
26443;BME280;5563;52.296;6.806;2023-04-19T12:10:34;102511.13;;;15.85;25.36
26443;BME280;5563;52.296;6.806;2023-04-19T12:13:18;102521.53;;;15.89;27.36
26443;BME280;5563;52.296;6.806;2023-04-19T12:15:51;102516.88;;;15.80;25.24
26443;BME280;5563;52.296;6.806;2023-04-19T12:18:18;102510.03;;;15.53;27.18
26443;BME280;5563;52.296;6.806;2023-04-19T12:20:47;102508.19;;;15.77;26.53
26443;BME280;5563;52.296;6.806;2023-04-19T12:23:20;102515.16;;;15.79;26.32
26443;BME280;5563;52.296;6.806;2023-04-19T12:25:47;102508.13;;;15.66;26.07
26443;BME280;5563;52.296;6.806;2023-04-19T12:28:21;102498.66;;;15.37;27.78
26443;BME280;5563;52.296;6.806;2023-04-19T12:30:48;102497.91;;;15.47;27.78
26443;BME280;5563;52.296;6.806;2023-04-19T12:33:22;102491.09;;;15.54;26.21
26443;BME280;5563;52.296;6.806;2023-04-19T12:35:49;102501.50;;;15.59;27.05
26443;BME280;5563;52.296;6.806;2023-04-19T12:38:22;102494.94;;;15.74;27.25
26443;BME280;5563;52.296;6.806;2023-04-19T12:40:49;102496.81;;;15.84;27.44
26443;BME280;5563;52.296;6.806;2023-04-19T12:43:22;102475.41;;;15.83;28.38
26443;BME280;5563;52.296;6.806;2023-04-19T12:45:55;102475.25;;;16.08;27.75
26443;BME280;5563;52.296;6.806;2023-04-19T12:48:28;102462.78;;;16.18;27.95
26443;BME280;5563;52.296;6.806;2023-04-19T12:51:02;102472.09;;;16.36;28.04
26443;BME280;5563;52.296;6.806;2023-04-19T12:53:29;102484.59;;;16.48;26.96
26443;BME280;5563;52.296;6.806;2023-04-19T12:56:10;102464.00;;;16.25;27.78
26443;BME280;5563;52.296;6.806;2023-04-19T12:58:50;102469.28;;;16.38;27.56
26443;BME280;5563;52.296;6.806;2023-04-19T13:01:23;102456.53;;;16.29;26.85
26443;BME280;5563;52.296;6.806;2023-04-19T13:03:50;102446.75;;;16.16;28.72
26443;BME280;5563;52.296;6.806;2023-04-19T13:06:25;102445.28;;;16.23;28.02
26443;BME280;5563;52.296;6.806;2023-04-19T13:08:51;102446.41;;;16.21;29.17
26443;BME280;5563;52.296;6.806;2023-04-19T13:11:27;102442.97;;;16.19;26.52
26443;BME280;5563;52.296;6.806;2023-04-19T13:13:53;102441.25;;;16.29;29.19
26443;BME280;5563;52.296;6.806;2023-04-19T13:16:27;102402.84;;;16.27;28.12
26443;BME280;5563;52.296;6.806;2023-04-19T13:19:00;102424.63;;;16.57;27.77
26443;BME280;5563;52.296;6.806;2023-04-19T13:21:33;102429.41;;;16.65;27.23
26443;BME280;5563;52.296;6.806;2023-04-19T13:24:00;102422.66;;;16.70;27.51
26443;BME280;5563;52.296;6.806;2023-04-19T13:26:33;102418.22;;;16.80;27.25
26443;BME280;5563;52.296;6.806;2023-04-19T13:29:06;102411.00;;;16.81;26.32
26443;BME280;5563;52.296;6.806;2023-04-19T13:31:34;102416.06;;;16.74;27.28
26443;BME280;5563;52.296;6.806;2023-04-19T13:34:07;102402.72;;;16.62;26.92
26443;BME280;5563;52.296;6.806;2023-04-19T13:36:42;102409.59;;;16.55;25.88
26443;BME280;5563;52.296;6.806;2023-04-19T13:39:08;102404.91;;;16.57;27.00
26443;BME280;5563;52.296;6.806;2023-04-19T13:41:42;102405.78;;;16.57;26.55
26443;BME280;5563;52.296;6.806;2023-04-19T13:44:15;102403.00;;;16.48;26.48